createdAt,value
2019-04-21T00:00:12.790Z,56.80
2019-04-21T00:02:47.617Z,55.50
2019-04-21T00:05:40.215Z,56.30
2019-04-21T00:08:19.414Z,56.50
2019-04-21T00:10:40.059Z,56.20
2019-04-21T00:13:07.803Z,56.00
2019-04-21T00:15:33.548Z,54.50
2019-04-21T00:18:00.325Z,54.30
2019-04-21T00:20:41.275Z,54.80
2019-04-21T00:23:22.614Z,55.90
2019-04-21T00:25:49.934Z,56.00
2019-04-21T00:28:34.661Z,55.20
2019-04-21T00:30:57.014Z,55.50
2019-04-21T00:33:17.598Z,57.10
2019-04-21T00:35:49.889Z,56.80
2019-04-21T00:38:31.919Z,56.70
2019-04-21T00:41:00.416Z,56.40
2019-04-21T00:43:34.471Z,56.10
2019-04-21T00:45:57.816Z,55.90
2019-04-21T00:48:45.664Z,55.90
2019-04-21T00:51:33.318Z,55.50
2019-04-21T00:53:51.902Z,56.50
2019-04-21T00:56:28.839Z,57.70
2019-04-21T00:58:59.912Z,57.20
2019-04-21T01:01:26.762Z,56.50
2019-04-21T01:03:57.698Z,57.60
2019-04-21T01:06:35.207Z,56.60
2019-04-21T01:09:05.288Z,57.00
2019-04-21T01:11:38.982Z,56.00
2019-04-21T01:14:12.054Z,55.60
2019-04-21T01:16:57.737Z,56.30
2019-04-21T01:19:41.164Z,55.20
2019-04-21T01:22:01.844Z,55.50
2019-04-21T01:24:35.731Z,57.20
2019-04-21T01:27:10.085Z,57.90
2019-04-21T01:29:56.602Z,58.50
2019-04-21T01:32:29.277Z,57.50
2019-04-21T01:34:59.359Z,57.00
2019-04-21T01:37:39.916Z,58.20
2019-04-21T01:40:16.853Z,57.80
2019-04-21T01:42:43.571Z,58.20
2019-04-21T01:45:14.713Z,58.00
2019-04-21T01:47:46.249Z,58.70
2019-04-21T01:50:31.578Z,58.50
2019-04-21T01:53:02.016Z,58.70
2019-04-21T01:55:49.684Z,59.30
2019-04-21T01:58:15.337Z,59.50
2019-04-21T02:00:52.582Z,59.50
2019-04-21T02:03:41.713Z,58.00
2019-04-21T02:06:02.984Z,57.80
2019-04-21T02:08:27.528Z,57.70
2019-04-21T02:11:09.548Z,58.70
2019-04-21T02:13:35.196Z,59.40
2019-04-21T02:16:14.069Z,59.70
2019-04-21T02:18:42.447Z,58.70
2019-04-21T02:21:00.082Z,58.50
2019-04-21T02:23:46.378Z,60.30
2019-04-21T02:26:16.369Z,60.80
2019-04-21T02:28:50.022Z,61.90
2019-04-21T02:31:39.512Z,60.30
2019-04-21T02:36:32.819Z,59.90
2019-04-21T02:39:08.365Z,61.10
2019-04-21T02:44:00.162Z,59.40
2019-04-21T02:46:35.305Z,60.20
2019-04-21T02:49:13.049Z,60.70
2019-04-21T02:51:27.808Z,60.00
2019-04-21T02:56:37.896Z,61.60
2019-04-21T02:58:59.869Z,61.80
2019-04-21T03:01:50.528Z,61.70
2019-04-21T03:04:26.236Z,60.60
2019-04-21T03:07:07.190Z,61.20
2019-04-21T03:17:29.237Z,62.80
2019-04-21T03:22:25.041Z,62.10
2019-04-21T03:27:50.872Z,60.50
2019-04-21T03:35:32.790Z,61.80
2019-04-21T03:37:30.820Z,62.80
2019-04-21T03:39:59.799Z,62.90
2019-04-21T03:42:34.148Z,62.00
2019-04-21T03:45:06.697Z,61.80
2019-04-21T03:47:30.881Z,62.60
2019-04-21T03:50:12.801Z,63.40
2019-04-21T03:58:19.688Z,62.90
2019-04-21T04:01:02.839Z,63.50
2019-04-21T04:06:03.114Z,63.00
2019-04-21T04:16:20.108Z,64.60
2019-04-21T04:21:20.631Z,64.70
2019-04-21T04:23:58.053Z,63.80
2019-04-21T04:26:22.915Z,63.40
2019-04-21T04:28:54.591Z,64.40
2019-04-21T04:39:25.997Z,63.00
2019-04-21T04:47:20.584Z,65.60
2019-04-21T04:57:42.040Z,66.20
2019-04-21T05:00:03.472Z,66.40
2019-04-21T05:08:38.949Z,66.00
2019-04-21T05:09:52.322Z,65.50
2019-04-21T05:12:38.863Z,64.90
2019-04-21T05:17:48.242Z,65.80
2019-04-21T05:22:48.962Z,65.90
2019-04-21T05:25:03.478Z,65.90
2019-04-21T05:27:45.104Z,65.70
2019-04-21T05:30:24.850Z,65.30
2019-04-21T05:33:03.624Z,65.80
2019-04-21T05:35:49.326Z,65.00
2019-04-21T05:38:23.328Z,65.00
2019-04-21T05:40:48.364Z,64.70
2019-04-21T05:43:32.582Z,64.20
2019-04-21T05:46:21.338Z,63.80
2019-04-21T05:48:35.108Z,63.20
2019-04-21T05:50:59.157Z,63.50
2019-04-21T05:56:14.298Z,62.30
2019-04-21T05:58:37.843Z,61.50
2019-04-21T06:01:28.507Z,61.50
2019-04-21T06:04:03.622Z,61.00
2019-04-21T06:08:53.961Z,60.30
2019-04-21T06:11:28.973Z,60.00
2019-04-21T06:14:01.530Z,59.90
2019-04-21T06:16:40.701Z,59.70
2019-04-21T06:18:58.291Z,59.30
2019-04-21T06:21:28.174Z,59.50
2019-04-21T06:23:59.238Z,58.10
2019-04-21T06:26:51.821Z,58.50
2019-04-21T06:29:02.744Z,58.70
2019-04-21T06:32:09.380Z,57.90
2019-04-21T06:34:04.843Z,57.60
2019-04-21T06:39:30.477Z,56.30
2019-04-21T06:41:43.251Z,56.20
2019-04-21T06:46:39.315Z,54.50
2019-04-21T06:49:11.182Z,55.00
2019-04-21T06:51:46.844Z,55.00
2019-04-21T06:54:23.474Z,54.50
2019-04-21T06:56:51.530Z,54.20
2019-04-21T06:59:21.070Z,53.30
2019-04-21T07:01:56.708Z,53.30
2019-04-21T07:04:24.286Z,52.90
2019-04-21T07:06:56.243Z,52.50
2019-04-21T07:09:25.444Z,52.10
2019-04-21T07:11:51.510Z,51.70
2019-04-21T07:14:44.069Z,51.10
2019-04-21T07:17:05.085Z,50.50
2019-04-21T07:19:35.151Z,49.80
2019-04-21T07:21:57.367Z,48.90
2019-04-21T07:24:31.997Z,48.90
2019-04-21T07:27:02.602Z,47.50
2019-04-21T07:29:34.497Z,46.90
2019-04-21T07:34:36.005Z,44.90
2019-04-21T07:37:00.927Z,44.20
2019-04-21T07:39:29.889Z,43.80
2019-04-21T07:41:54.069Z,43.20
2019-04-21T07:44:31.923Z,41.30
2019-04-21T07:46:53.352Z,41.40
2019-04-21T07:49:53.718Z,42.30
2019-04-21T07:52:23.693Z,46.50
2019-04-21T07:55:07.936Z,42.30
2019-04-21T07:57:18.685Z,41.70
2019-04-21T08:00:06.561Z,44.30
2019-04-21T08:02:23.289Z,46.90
2019-04-21T08:07:30.808Z,43.40
2019-04-21T08:09:51.489Z,51.10
2019-04-21T08:12:19.732Z,34.70
2019-04-21T08:15:05.965Z,42.10
2019-04-21T08:17:24.507Z,33.50
2019-04-21T08:19:53.716Z,44.20
2019-04-21T08:22:25.938Z,30.90
2019-04-21T08:25:01.083Z,32.20
2019-04-21T08:27:25.804Z,31.60
2019-04-21T08:29:58.338Z,28.80
2019-04-21T08:32:38.562Z,28.00
2019-04-21T08:35:08.405Z,28.00
2019-04-21T08:37:24.156Z,28.30
2019-04-21T08:40:04.758Z,27.00
2019-04-21T08:42:26.698Z,26.10
2019-04-21T08:45:00.337Z,26.70
2019-04-21T08:47:25.627Z,29.20
2019-04-21T08:49:54.107Z,25.60
2019-04-21T08:52:36.906Z,28.70
2019-04-21T08:55:03.620Z,26.30
2019-04-21T08:57:47.615Z,25.00
2019-04-21T09:00:16.383Z,26.40
2019-04-21T09:05:04.720Z,28.80
2019-04-21T09:07:38.785Z,23.00
2019-04-21T09:10:06.334Z,23.90
2019-04-21T09:12:34.601Z,22.90
2019-04-21T09:15:08.596Z,22.20
2019-04-21T09:17:28.458Z,24.50
2019-04-21T09:20:13.793Z,22.40
2019-04-21T09:22:38.255Z,22.70
2019-04-21T09:25:14.556Z,19.70
2019-04-21T09:27:39.235Z,20.90
2019-04-21T09:29:53.970Z,19.70
2019-04-21T09:32:23.873Z,21.10
2019-04-21T09:34:51.292Z,20.00
2019-04-21T09:37:33.013Z,18.80
2019-04-21T09:39:52.425Z,20.30
2019-04-21T09:42:21.448Z,17.90
2019-04-21T09:44:55.236Z,18.40
2019-04-21T09:47:23.454Z,17.90
2019-04-21T09:49:49.801Z,18.60
2019-04-21T09:52:25.429Z,18.50
2019-04-21T09:54:58.577Z,18.20
2019-04-21T09:57:32.723Z,17.10
2019-04-21T10:00:02.444Z,16.20
2019-04-21T10:02:32.792Z,16.20
2019-04-21T10:04:50.936Z,17.00
2019-04-21T10:07:26.382Z,18.40
2019-04-21T10:09:50.012Z,15.90
2019-04-21T10:12:18.465Z,15.70
2019-04-21T10:14:47.364Z,16.60
2019-04-21T10:17:21.710Z,15.30
2019-04-21T10:19:50.704Z,15.90
2019-04-21T10:22:19.160Z,15.10
2019-04-21T10:24:48.714Z,15.90
2019-04-21T10:27:17.323Z,15.10
2019-04-21T10:29:47.227Z,14.90
2019-04-21T10:32:18.665Z,14.50
2019-04-21T10:34:47.400Z,14.50
2019-04-21T10:37:16.669Z,13.70
2019-04-21T10:39:45.347Z,13.80
2019-04-21T10:42:15.508Z,14.70
2019-04-21T10:44:45.038Z,14.30
2019-04-21T10:47:14.509Z,13.40
2019-04-21T10:49:42.923Z,14.50
2019-04-21T10:52:22.867Z,14.50
2019-04-21T10:55:12.880Z,13.70
2019-04-21T10:57:30.443Z,13.30
2019-04-21T10:59:59.881Z,13.30
2019-04-21T11:02:39.467Z,12.20
2019-04-21T11:05:09.064Z,12.20
2019-04-21T11:08:07.815Z,11.60
2019-04-21T11:10:25.658Z,11.60
2019-04-21T11:12:54.698Z,11.50
2019-04-21T11:15:23.390Z,12.00
2019-04-21T11:17:52.330Z,11.20
2019-04-21T11:20:21.057Z,11.00
2019-04-21T11:22:49.704Z,10.90
2019-04-21T11:25:18.074Z,11.40
2019-04-21T11:27:47.023Z,12.70
2019-04-21T11:30:17.980Z,11.80
2019-04-21T11:32:47.666Z,10.70
2019-04-21T11:35:17.134Z,11.10
2019-04-21T11:37:46.186Z,11.50
2019-04-21T11:40:17.839Z,12.70
2019-04-21T11:42:46.090Z,10.90
2019-04-21T11:45:24.357Z,10.70
2019-04-21T11:48:12.353Z,11.40
2019-04-21T11:50:41.384Z,12.10
2019-04-21T11:53:10.633Z,11.00
2019-04-21T11:55:43.220Z,12.10
2019-04-21T11:58:09.932Z,10.60
2019-04-21T12:00:39.822Z,11.80
2019-04-21T12:03:09.213Z,11.60
2019-04-21T12:05:37.632Z,10.90
2019-04-21T12:08:18.856Z,9.80
2019-04-21T12:10:37.641Z,10.30
2019-04-21T12:13:07.420Z,10.50
2019-04-21T12:15:36.779Z,9.90
2019-04-21T12:18:06.022Z,10.40
2019-04-21T12:20:35.540Z,11.10
2019-04-21T12:23:04.663Z,12.00
2019-04-21T12:25:40.863Z,9.60
2019-04-21T12:28:10.033Z,11.10
2019-04-21T12:30:39.875Z,11.50
2019-04-21T12:33:14.032Z,10.20
2019-04-21T12:35:43.813Z,10.50
2019-04-21T12:38:13.073Z,9.60
2019-04-21T12:40:42.298Z,10.10
2019-04-21T12:43:10.812Z,10.40
2019-04-21T12:45:39.981Z,9.70
2019-04-21T12:48:08.499Z,9.50
2019-04-21T12:50:36.912Z,9.50
2019-04-21T12:53:05.458Z,9.70
2019-04-21T12:55:37.465Z,10.80
2019-04-21T12:58:05.247Z,10.20
2019-04-21T13:00:34.944Z,9.80
2019-04-21T13:03:03.660Z,10.00
2019-04-21T13:05:33.679Z,9.10
2019-04-21T13:08:02.200Z,9.40
2019-04-21T13:10:31.859Z,11.10
2019-04-21T13:13:00.180Z,9.80
2019-04-21T13:15:29.336Z,9.40
2019-04-21T13:17:58.500Z,9.50
2019-04-21T13:20:27.447Z,10.20
2019-04-21T13:22:57.706Z,9.10
2019-04-21T13:25:27.735Z,8.90
2019-04-21T13:27:56.487Z,8.10
2019-04-21T13:30:24.820Z,8.90
2019-04-21T13:32:53.418Z,9.50
2019-04-21T13:35:23.269Z,9.70
2019-04-21T13:37:52.311Z,8.90
2019-04-21T13:40:45.025Z,9.70
2019-04-21T13:42:58.831Z,8.30
2019-04-21T13:45:25.967Z,9.90
2019-04-21T13:47:54.728Z,8.20
2019-04-21T13:50:23.664Z,8.40
2019-04-21T13:52:52.361Z,9.40
2019-04-21T13:55:21.340Z,8.10
2019-04-21T13:57:50.526Z,7.50
2019-04-21T14:00:19.421Z,9.00
2019-04-21T14:02:48.997Z,9.00
2019-04-21T14:05:18.156Z,8.20
2019-04-21T14:07:46.541Z,10.50
2019-04-21T14:10:16.127Z,9.00
2019-04-21T14:12:44.912Z,9.50
2019-04-21T14:15:14.514Z,10.20
2019-04-21T14:17:43.082Z,9.90
2019-04-21T14:20:11.443Z,9.10
2019-04-21T14:22:40.038Z,9.70
2019-04-21T14:25:09.825Z,10.50
2019-04-21T14:27:38.561Z,8.80
2019-04-21T14:30:10.299Z,9.50
2019-04-21T14:32:40.093Z,10.10
2019-04-21T14:35:09.131Z,9.00
2019-04-21T14:37:38.368Z,9.90
2019-04-21T14:40:13.640Z,10.10
2019-04-21T14:42:40.191Z,9.70
2019-04-21T14:45:10.238Z,9.40
2019-04-21T14:47:46.356Z,9.40
2019-04-21T14:50:26.285Z,11.50
2019-04-21T14:53:20.238Z,9.90
2019-04-21T14:55:51.107Z,10.00
2019-04-21T14:58:19.689Z,10.00
2019-04-21T15:00:55.712Z,10.30
2019-04-21T15:03:32.090Z,10.40
2019-04-21T15:06:01.095Z,10.30
2019-04-21T15:08:29.583Z,10.70
2019-04-21T15:11:01.133Z,10.90
2019-04-21T15:13:30.040Z,11.20
2019-04-21T15:15:58.521Z,12.70
2019-04-21T15:18:28.563Z,12.90
2019-04-21T15:20:57.414Z,14.90
2019-04-21T15:23:28.613Z,12.40
2019-04-21T15:25:57.935Z,13.80
2019-04-21T15:28:31.598Z,13.10
2019-04-21T15:30:56.698Z,11.90
2019-04-21T15:33:26.581Z,11.70
2019-04-21T15:35:55.443Z,12.30
2019-04-21T15:38:23.823Z,11.80
2019-04-21T15:40:57.065Z,12.00
2019-04-21T15:43:24.438Z,12.00
2019-04-21T15:45:57.033Z,13.20
2019-04-21T15:48:26.692Z,12.80
2019-04-21T15:50:56.676Z,12.20
2019-04-21T15:53:27.802Z,13.00
2019-04-21T15:55:59.128Z,12.60
2019-04-21T15:58:44.468Z,13.20
2019-04-21T16:01:24.846Z,14.60
2019-04-21T16:03:58.276Z,14.40
2019-04-21T16:06:27.723Z,15.90
2019-04-21T16:08:58.985Z,13.70
2019-04-21T16:11:26.203Z,12.90
2019-04-21T16:13:55.491Z,12.40
2019-04-21T16:16:30.105Z,13.50
2019-04-21T16:18:58.329Z,12.90
2019-04-21T16:21:29.529Z,15.10
2019-04-21T16:23:58.350Z,13.50
2019-04-21T16:26:30.798Z,15.90
2019-04-21T16:28:59.385Z,15.20
2019-04-21T16:31:28.096Z,15.70
2019-04-21T16:33:58.764Z,15.00
2019-04-21T16:36:27.497Z,17.30
2019-04-21T16:38:57.626Z,15.50
2019-04-21T16:41:28.666Z,16.30
2019-04-21T16:43:58.879Z,17.60
2019-04-21T16:46:27.552Z,18.10
2019-04-21T16:48:57.796Z,16.10
2019-04-21T16:51:28.376Z,18.30
2019-04-21T16:54:01.919Z,16.70
2019-04-21T16:56:33.015Z,16.40
2019-04-21T16:59:03.643Z,16.10
2019-04-21T17:01:38.467Z,16.60
2019-04-21T17:04:06.885Z,18.40
2019-04-21T17:06:38.256Z,17.00
2019-04-21T17:09:08.477Z,19.50
2019-04-21T17:11:38.055Z,19.50
2019-04-21T17:14:24.691Z,18.00
2019-04-21T17:16:57.582Z,17.70
2019-04-21T17:19:18.021Z,18.50
2019-04-21T17:21:41.641Z,18.70
2019-04-21T17:24:10.595Z,19.60
2019-04-21T17:26:41.121Z,20.60
2019-04-21T17:29:10.283Z,22.40
2019-04-21T17:31:39.259Z,19.40
2019-04-21T17:34:21.807Z,20.60
2019-04-21T17:36:50.953Z,22.00
2019-04-21T17:39:26.914Z,21.90
2019-04-21T17:42:13.010Z,22.60
2019-04-21T17:44:27.808Z,22.10
2019-04-21T17:47:05.277Z,23.00
2019-04-21T17:49:30.918Z,23.20
2019-04-21T17:52:16.285Z,24.40
2019-04-21T17:54:48.890Z,23.30
2019-04-21T17:57:36.608Z,23.00
2019-04-21T18:00:11.632Z,27.40
2019-04-21T18:02:42.921Z,26.60
2019-04-21T18:05:16.621Z,27.80
2019-04-21T18:07:48.816Z,25.20
2019-04-21T18:10:07.622Z,24.40
2019-04-21T18:12:36.125Z,26.70
2019-04-21T18:15:02.635Z,28.50
2019-04-21T18:17:22.786Z,27.10
2019-04-21T18:19:53.621Z,28.90
2019-04-21T18:22:38.569Z,28.70
2019-04-21T18:25:13.817Z,27.60
2019-04-21T18:27:38.788Z,28.50
2019-04-21T18:30:46.831Z,28.80
2019-04-21T18:33:22.239Z,26.30
2019-04-21T18:36:06.236Z,28.70
2019-04-21T18:39:02.610Z,29.20
2019-04-21T18:41:13.468Z,31.00
2019-04-21T18:44:19.705Z,30.20
2019-04-21T18:46:40.007Z,31.80
2019-04-21T18:48:57.925Z,32.00
2019-04-21T18:51:39.251Z,31.70
2019-04-21T18:54:26.945Z,33.30
2019-04-21T18:56:33.814Z,33.60
2019-04-21T18:59:04.423Z,35.00
2019-04-21T19:01:35.191Z,35.40
2019-04-21T19:04:05.379Z,37.20
2019-04-21T19:06:56.150Z,37.80
2019-04-21T19:09:24.608Z,37.30
2019-04-21T19:11:59.581Z,37.60
2019-04-21T19:17:31.870Z,38.20
2019-04-21T19:22:04.908Z,36.60
2019-04-21T19:24:39.257Z,39.40
2019-04-21T19:27:11.940Z,38.00
2019-04-21T19:29:34.634Z,40.00
2019-04-21T19:32:08.902Z,39.90
2019-04-21T19:34:24.494Z,41.20
2019-04-21T19:36:57.614Z,41.00
2019-04-21T19:39:35.000Z,38.60
2019-04-21T19:42:00.758Z,40.30
2019-04-21T19:44:38.224Z,39.40
2019-04-21T19:47:11.570Z,41.80
2019-04-21T19:49:46.409Z,42.50
2019-04-21T19:51:59.594Z,41.30
2019-04-21T19:54:29.926Z,40.50
2019-04-21T19:56:51.411Z,40.60
2019-04-21T19:59:30.895Z,43.80
2019-04-21T20:01:51.332Z,42.60
2019-04-21T20:04:20.044Z,44.10
2019-04-21T20:07:01.030Z,44.80
2019-04-21T20:09:37.048Z,44.00
2019-04-21T20:12:03.620Z,43.90
2019-04-21T20:14:51.056Z,44.00
2019-04-21T20:17:00.582Z,42.20
2019-04-21T20:19:19.634Z,43.80
2019-04-21T20:21:51.149Z,45.70
2019-04-21T20:24:25.077Z,43.70
2019-04-21T20:26:59.974Z,44.00
2019-04-21T20:29:37.451Z,43.80
2019-04-21T20:32:16.013Z,44.40
2019-04-21T20:34:38.656Z,44.30
2019-04-21T20:37:09.583Z,44.50
2019-04-21T20:39:24.193Z,45.00
2019-04-21T20:42:11.386Z,45.50
2019-04-21T20:44:42.300Z,45.30
2019-04-21T20:47:03.845Z,45.60
2019-04-21T20:49:34.135Z,46.60
2019-04-21T20:52:14.094Z,47.80
2019-04-21T20:54:41.064Z,47.30
2019-04-21T20:57:11.250Z,47.70
2019-04-21T20:59:31.710Z,48.10
2019-04-21T21:02:10.133Z,49.20
2019-04-21T21:04:32.646Z,48.80
2019-04-21T21:07:16.270Z,49.40
2019-04-21T21:09:41.460Z,49.00
2019-04-21T21:12:22.331Z,48.80
2019-04-21T21:14:39.141Z,48.60
2019-04-21T21:17:13.214Z,50.00
2019-04-21T21:19:40.082Z,50.80
2019-04-21T21:22:05.978Z,50.30
2019-04-21T21:24:49.313Z,50.40
2019-04-21T21:27:09.778Z,49.20
2019-04-21T21:29:40.482Z,49.30
2019-04-21T21:32:16.227Z,49.60
2019-04-21T21:34:47.433Z,49.20
2019-04-21T21:37:21.252Z,50.50
2019-04-21T21:39:48.850Z,50.80
2019-04-21T21:41:58.624Z,50.00
2019-04-21T21:44:27.963Z,51.20
2019-04-21T21:47:06.550Z,50.60
2019-04-21T21:49:38.230Z,51.30
2019-04-21T21:52:04.402Z,51.10
2019-04-21T21:54:25.725Z,51.10
2019-04-21T21:56:54.566Z,51.40
2019-04-21T21:59:27.862Z,51.40
2019-04-21T22:01:54.879Z,51.20
2019-04-21T22:04:26.857Z,51.00
2019-04-21T22:06:58.269Z,50.60
2019-04-21T22:09:24.198Z,50.20
2019-04-21T22:11:57.912Z,50.20
2019-04-21T22:14:32.649Z,52.80
2019-04-21T22:17:11.078Z,50.40
2019-04-21T22:19:41.696Z,50.80
2019-04-21T22:22:13.966Z,50.90
2019-04-21T22:24:44.945Z,51.90
2019-04-21T22:26:54.859Z,51.90
2019-04-21T22:29:23.502Z,51.60
2019-04-21T22:31:59.735Z,52.60
2019-04-21T22:34:27.650Z,52.20
2019-04-21T22:37:01.396Z,52.50
2019-04-21T22:39:43.662Z,53.00
2019-04-21T22:42:01.859Z,52.20
2019-04-21T22:44:22.780Z,53.00
2019-04-21T22:47:02.162Z,52.90
2019-04-21T22:49:22.303Z,53.30
2019-04-21T22:51:52.455Z,53.30
2019-04-21T22:54:28.685Z,53.60
2019-04-21T22:57:01.593Z,52.80
2019-04-21T22:59:24.131Z,53.30
2019-04-21T23:01:54.351Z,54.10
2019-04-21T23:04:25.471Z,54.60
2019-04-21T23:06:59.330Z,54.90
2019-04-21T23:09:24.690Z,53.50
2019-04-21T23:11:56.222Z,54.00
2019-04-21T23:14:23.724Z,54.60
2019-04-21T23:16:54.247Z,53.90
2019-04-21T23:19:35.678Z,54.30
2019-04-21T23:22:09.611Z,53.80
2019-04-21T23:24:45.519Z,55.30
2019-04-21T23:27:06.379Z,54.90
2019-04-21T23:29:49.789Z,54.40
2019-04-21T23:32:09.529Z,54.50
2019-04-21T23:34:26.622Z,55.30
2019-04-21T23:37:00.653Z,55.50
2019-04-21T23:39:27.360Z,55.90
2019-04-21T23:41:55.380Z,55.50
2019-04-21T23:44:24.115Z,55.60
2019-04-21T23:46:57.568Z,56.40
2019-04-21T23:49:35.464Z,55.60
2019-04-21T23:52:00.488Z,56.00
2019-04-21T23:54:23.428Z,56.00
2019-04-21T23:56:52.068Z,56.00
2019-04-21T23:59:20.709Z,56.50
